sensor_id;sensor_type;location;lat;lon;timestamp;pressure;altitude;pressure_sealevel;temperature;humidity
13407;BME280;6774;48.208;10.766;2022-09-28T00:01:04;94087.75;;;10.39;88.58
13407;BME280;6774;48.208;10.766;2022-09-28T00:03:32;94079.25;;;10.37;88.69
13407;BME280;6774;48.208;10.766;2022-09-28T00:06:01;94078.81;;;10.22;88.66
13407;BME280;6774;48.208;10.766;2022-09-28T00:08:30;94074.84;;;10.31;88.59
13407;BME280;6774;48.208;10.766;2022-09-28T00:10:58;94066.94;;;10.31;88.43
13407;BME280;6774;48.208;10.766;2022-09-28T00:13:26;94065.22;;;10.25;89.09
13407;BME280;6774;48.208;10.766;2022-09-28T00:16:01;94064.56;;;10.05;89.13
13407;BME280;6774;48.208;10.766;2022-09-28T00:18:29;94068.91;;;9.99;89.16
13407;BME280;6774;48.208;10.766;2022-09-28T00:21:02;94065.88;;;9.95;89.69
13407;BME280;6774;48.208;10.766;2022-09-28T00:23:31;94061.28;;;10.09;89.66
13407;BME280;6774;48.208;10.766;2022-09-28T00:26:03;94045.41;;;10.16;89.38
13407;BME280;6774;48.208;10.766;2022-09-28T00:28:31;94030.25;;;10.30;88.39
13407;BME280;6774;48.208;10.766;2022-09-28T00:31:00;94035.44;;;10.18;88.20
13407;BME280;6774;48.208;10.766;2022-09-28T00:33:28;94035.75;;;9.91;88.70
13407;BME280;6774;48.208;10.766;2022-09-28T00:35:56;94033.03;;;9.98;89.00
13407;BME280;6774;48.208;10.766;2022-09-28T00:38:25;94033.97;;;9.85;89.24
13407;BME280;6774;48.208;10.766;2022-09-28T00:40:54;94024.16;;;10.11;88.49
13407;BME280;6774;48.208;10.766;2022-09-28T00:43:22;94017.00;;;9.81;88.99
13407;BME280;6774;48.208;10.766;2022-09-28T00:45:55;94016.09;;;9.87;88.98
13407;BME280;6774;48.208;10.766;2022-09-28T00:48:30;94017.53;;;9.90;88.56
13407;BME280;6774;48.208;10.766;2022-09-28T00:51:05;94007.78;;;10.09;88.20
13407;BME280;6774;48.208;10.766;2022-09-28T00:53:36;94008.66;;;10.03;88.25
13407;BME280;6774;48.208;10.766;2022-09-28T00:56:08;94005.44;;;10.01;88.03
13407;BME280;6774;48.208;10.766;2022-09-28T00:58:40;93999.50;;;10.05;88.07
13407;BME280;6774;48.208;10.766;2022-09-28T01:01:10;93997.47;;;9.89;88.24
13407;BME280;6774;48.208;10.766;2022-09-28T01:03:40;93993.28;;;10.00;87.47
13407;BME280;6774;48.208;10.766;2022-09-28T01:06:14;93988.22;;;10.16;87.58
13407;BME280;6774;48.208;10.766;2022-09-28T01:08:46;93986.25;;;10.12;87.18
13407;BME280;6774;48.208;10.766;2022-09-28T01:11:16;93981.97;;;9.81;87.74
13407;BME280;6774;48.208;10.766;2022-09-28T01:13:45;93975.94;;;9.92;87.53
13407;BME280;6774;48.208;10.766;2022-09-28T01:16:21;93970.06;;;10.08;86.93
13407;BME280;6774;48.208;10.766;2022-09-28T01:19:00;93966.47;;;10.03;87.10
13407;BME280;6774;48.208;10.766;2022-09-28T01:21:38;93951.75;;;10.13;87.04
13407;BME280;6774;48.208;10.766;2022-09-28T01:24:26;93952.28;;;10.04;87.02
13407;BME280;6774;48.208;10.766;2022-09-28T01:27:05;93943.75;;;10.20;86.49
13407;BME280;6774;48.208;10.766;2022-09-28T01:29:43;93925.91;;;10.22;85.91
13407;BME280;6774;48.208;10.766;2022-09-28T01:32:19;93930.59;;;10.20;86.03
13407;BME280;6774;48.208;10.766;2022-09-28T01:34:54;93920.53;;;9.98;86.49
13407;BME280;6774;48.208;10.766;2022-09-28T01:37:29;93918.47;;;10.01;86.95
13407;BME280;6774;48.208;10.766;2022-09-28T01:40:01;93913.69;;;9.79;87.28
13407;BME280;6774;48.208;10.766;2022-09-28T01:42:33;93900.63;;;9.84;86.75
13407;BME280;6774;48.208;10.766;2022-09-28T01:45:06;93905.38;;;9.94;86.57
13407;BME280;6774;48.208;10.766;2022-09-28T01:47:38;93891.34;;;10.12;85.34
13407;BME280;6774;48.208;10.766;2022-09-28T01:50:11;93881.75;;;9.87;86.40
13407;BME280;6774;48.208;10.766;2022-09-28T01:52:46;93880.03;;;9.81;86.28
13407;BME280;6774;48.208;10.766;2022-09-28T01:55:18;93876.34;;;9.82;86.44
13407;BME280;6774;48.208;10.766;2022-09-28T01:57:54;93872.97;;;9.93;86.14
13407;BME280;6774;48.208;10.766;2022-09-28T02:00:24;93873.03;;;9.87;86.14
13407;BME280;6774;48.208;10.766;2022-09-28T02:02:58;93881.00;;;9.98;85.61
13407;BME280;6774;48.208;10.766;2022-09-28T02:05:45;93852.06;;;9.80;86.08
13407;BME280;6774;48.208;10.766;2022-09-28T02:08:19;93850.72;;;9.89;85.54
13407;BME280;6774;48.208;10.766;2022-09-28T02:10:55;93850.13;;;9.87;85.81
13407;BME280;6774;48.208;10.766;2022-09-28T02:13:30;93854.78;;;9.74;86.56
13407;BME280;6774;48.208;10.766;2022-09-28T02:16:03;93835.34;;;9.86;85.96
13407;BME280;6774;48.208;10.766;2022-09-28T02:18:33;93827.38;;;10.05;85.37
13407;BME280;6774;48.208;10.766;2022-09-28T02:21:06;93821.81;;;9.71;85.52
13407;BME280;6774;48.208;10.766;2022-09-28T02:23:38;93817.50;;;9.88;85.37
13407;BME280;6774;48.208;10.766;2022-09-28T02:26:12;93815.28;;;9.74;85.46
13407;BME280;6774;48.208;10.766;2022-09-28T02:28:44;93817.44;;;9.77;85.81
13407;BME280;6774;48.208;10.766;2022-09-28T02:31:12;93811.06;;;9.84;85.19
13407;BME280;6774;48.208;10.766;2022-09-28T02:33:42;93812.84;;;10.02;84.75
13407;BME280;6774;48.208;10.766;2022-09-28T02:36:11;93805.44;;;9.81;85.12
13407;BME280;6774;48.208;10.766;2022-09-28T02:38:38;93802.84;;;9.92;85.02
13407;BME280;6774;48.208;10.766;2022-09-28T02:41:12;93807.09;;;9.93;84.43
13407;BME280;6774;48.208;10.766;2022-09-28T02:43:51;93808.81;;;10.00;84.12
13407;BME280;6774;48.208;10.766;2022-09-28T02:46:28;93807.91;;;10.06;84.20
13407;BME280;6774;48.208;10.766;2022-09-28T02:49:16;93814.28;;;9.86;84.88
13407;BME280;6774;48.208;10.766;2022-09-28T02:52:07;93807.72;;;9.77;85.17
13407;BME280;6774;48.208;10.766;2022-09-28T02:55:00;93818.94;;;10.14;84.25
13407;BME280;6774;48.208;10.766;2022-09-28T02:57:41;93814.69;;;10.13;84.17
13407;BME280;6774;48.208;10.766;2022-09-28T03:00:18;93813.47;;;10.16;83.92
13407;BME280;6774;48.208;10.766;2022-09-28T03:02:55;93811.03;;;10.14;84.07
13407;BME280;6774;48.208;10.766;2022-09-28T03:05:31;93811.16;;;10.08;83.98
13407;BME280;6774;48.208;10.766;2022-09-28T03:08:04;93811.41;;;10.18;83.65
13407;BME280;6774;48.208;10.766;2022-09-28T03:10:38;93802.72;;;10.29;83.04
13407;BME280;6774;48.208;10.766;2022-09-28T03:13:08;93796.66;;;10.29;83.19
13407;BME280;6774;48.208;10.766;2022-09-28T03:15:39;93792.31;;;10.34;83.08
13407;BME280;6774;48.208;10.766;2022-09-28T03:18:13;93786.91;;;10.29;83.42
13407;BME280;6774;48.208;10.766;2022-09-28T03:20:41;93791.16;;;10.42;83.02
13407;BME280;6774;48.208;10.766;2022-09-28T03:23:09;93784.28;;;10.29;83.11
13407;BME280;6774;48.208;10.766;2022-09-28T03:25:50;93790.34;;;10.41;82.20
13407;BME280;6774;48.208;10.766;2022-09-28T03:28:18;93783.97;;;10.61;81.68
13407;BME280;6774;48.208;10.766;2022-09-28T03:30:48;93779.13;;;10.58;81.86
13407;BME280;6774;48.208;10.766;2022-09-28T03:33:16;93781.66;;;10.52;81.23
13407;BME280;6774;48.208;10.766;2022-09-28T03:35:45;93778.91;;;10.47;81.92
13407;BME280;6774;48.208;10.766;2022-09-28T03:38:14;93779.22;;;10.51;81.93
13407;BME280;6774;48.208;10.766;2022-09-28T03:40:42;93773.75;;;10.52;81.51
13407;BME280;6774;48.208;10.766;2022-09-28T03:43:10;93759.41;;;10.25;82.50
13407;BME280;6774;48.208;10.766;2022-09-28T03:45:39;93758.94;;;10.28;82.16
13407;BME280;6774;48.208;10.766;2022-09-28T03:48:08;93753.19;;;10.31;81.62
13407;BME280;6774;48.208;10.766;2022-09-28T03:50:36;93743.75;;;10.12;82.15
13407;BME280;6774;48.208;10.766;2022-09-28T03:53:04;93742.38;;;9.97;83.12
13407;BME280;6774;48.208;10.766;2022-09-28T03:55:31;93732.28;;;9.94;83.33
13407;BME280;6774;48.208;10.766;2022-09-28T03:58:00;93728.75;;;10.01;83.63
13407;BME280;6774;48.208;10.766;2022-09-28T04:00:28;93739.28;;;10.12;83.32
13407;BME280;6774;48.208;10.766;2022-09-28T04:02:56;93732.84;;;9.96;83.77
13407;BME280;6774;48.208;10.766;2022-09-28T04:05:25;93726.31;;;9.87;84.31
13407;BME280;6774;48.208;10.766;2022-09-28T04:07:53;93725.63;;;9.80;84.83
13407;BME280;6774;48.208;10.766;2022-09-28T04:10:24;93728.06;;;9.52;86.16
13407;BME280;6774;48.208;10.766;2022-09-28T04:12:53;93723.88;;;9.62;86.16
13407;BME280;6774;48.208;10.766;2022-09-28T04:15:21;93723.63;;;9.64;86.99
13407;BME280;6774;48.208;10.766;2022-09-28T04:17:49;93721.28;;;9.86;85.15
13407;BME280;6774;48.208;10.766;2022-09-28T04:20:45;93729.06;;;9.92;85.67
13407;BME280;6774;48.208;10.766;2022-09-28T04:23:13;93731.63;;;10.11;85.17
13407;BME280;6774;48.208;10.766;2022-09-28T04:25:42;93722.72;;;10.23;84.87
13407;BME280;6774;48.208;10.766;2022-09-28T04:28:14;93724.03;;;10.03;86.07
13407;BME280;6774;48.208;10.766;2022-09-28T04:30:59;93722.56;;;10.07;85.50
13407;BME280;6774;48.208;10.766;2022-09-28T04:33:27;93710.06;;;10.14;85.78
13407;BME280;6774;48.208;10.766;2022-09-28T04:35:58;93710.88;;;10.03;85.99
13407;BME280;6774;48.208;10.766;2022-09-28T04:38:26;93701.41;;;10.25;86.07
13407;BME280;6774;48.208;10.766;2022-09-28T04:41:14;93693.50;;;10.25;85.66
13407;BME280;6774;48.208;10.766;2022-09-28T04:43:45;93687.53;;;10.30;85.78
13407;BME280;6774;48.208;10.766;2022-09-28T04:46:15;93680.66;;;10.29;85.81
13407;BME280;6774;48.208;10.766;2022-09-28T04:49:09;93681.94;;;10.26;86.10
13407;BME280;6774;48.208;10.766;2022-09-28T04:51:51;93683.97;;;10.24;85.92
13407;BME280;6774;48.208;10.766;2022-09-28T04:54:19;93674.31;;;10.41;85.70
13407;BME280;6774;48.208;10.766;2022-09-28T04:56:47;93672.03;;;10.33;86.03
13407;BME280;6774;48.208;10.766;2022-09-28T04:59:18;93670.22;;;10.45;85.73
13407;BME280;6774;48.208;10.766;2022-09-28T05:01:46;93668.72;;;10.38;86.49
13407;BME280;6774;48.208;10.766;2022-09-28T05:04:33;93661.94;;;10.42;85.91
13407;BME280;6774;48.208;10.766;2022-09-28T05:07:15;93673.19;;;10.49;85.55
13407;BME280;6774;48.208;10.766;2022-09-28T05:09:43;93674.78;;;10.50;85.35
13407;BME280;6774;48.208;10.766;2022-09-28T05:12:13;93669.63;;;10.55;85.27
13407;BME280;6774;48.208;10.766;2022-09-28T05:14:41;93671.09;;;10.63;84.95
13407;BME280;6774;48.208;10.766;2022-09-28T05:17:09;93671.09;;;10.63;85.04
13407;BME280;6774;48.208;10.766;2022-09-28T05:20:07;93673.19;;;10.61;84.86
13407;BME280;6774;48.208;10.766;2022-09-28T05:22:36;93679.56;;;10.65;84.74
13407;BME280;6774;48.208;10.766;2022-09-28T05:25:07;93670.53;;;10.61;84.87
13407;BME280;6774;48.208;10.766;2022-09-28T05:27:46;93653.44;;;10.63;84.28
13407;BME280;6774;48.208;10.766;2022-09-28T05:30:33;93662.72;;;10.66;84.01
13407;BME280;6774;48.208;10.766;2022-09-28T05:33:20;93662.16;;;10.64;84.19
13407;BME280;6774;48.208;10.766;2022-09-28T05:35:54;93651.13;;;10.67;84.52
13407;BME280;6774;48.208;10.766;2022-09-28T05:38:29;93661.31;;;10.75;84.27
13407;BME280;6774;48.208;10.766;2022-09-28T05:40:57;93667.97;;;10.77;84.78
13407;BME280;6774;48.208;10.766;2022-09-28T05:43:31;93669.50;;;10.62;85.23
13407;BME280;6774;48.208;10.766;2022-09-28T05:46:02;93670.94;;;10.69;85.11
13407;BME280;6774;48.208;10.766;2022-09-28T05:48:32;93671.78;;;10.70;85.14
13407;BME280;6774;48.208;10.766;2022-09-28T05:51:01;93670.19;;;10.57;86.17
13407;BME280;6774;48.208;10.766;2022-09-28T05:53:30;93665.34;;;10.66;85.57
13407;BME280;6774;48.208;10.766;2022-09-28T05:55:58;93658.47;;;10.65;85.26
13407;BME280;6774;48.208;10.766;2022-09-28T05:58:29;93662.72;;;10.66;85.20
13407;BME280;6774;48.208;10.766;2022-09-28T06:00:58;93660.06;;;10.66;85.44
13407;BME280;6774;48.208;10.766;2022-09-28T06:03:26;93656.97;;;10.69;85.54
13407;BME280;6774;48.208;10.766;2022-09-28T06:05:54;93654.69;;;10.72;85.42
13407;BME280;6774;48.208;10.766;2022-09-28T06:08:22;93641.81;;;10.76;84.84
13407;BME280;6774;48.208;10.766;2022-09-28T06:11:04;93638.25;;;10.82;84.06
13407;BME280;6774;48.208;10.766;2022-09-28T06:13:32;93646.25;;;10.87;84.22
13407;BME280;6774;48.208;10.766;2022-09-28T06:16:00;93631.94;;;10.83;83.73
13407;BME280;6774;48.208;10.766;2022-09-28T06:18:30;93651.31;;;10.77;84.58
13407;BME280;6774;48.208;10.766;2022-09-28T06:21:17;93637.69;;;10.80;84.29
13407;BME280;6774;48.208;10.766;2022-09-28T06:23:45;93650.88;;;10.80;83.58
13407;BME280;6774;48.208;10.766;2022-09-28T06:26:17;93649.28;;;10.79;84.23
13407;BME280;6774;48.208;10.766;2022-09-28T06:28:45;93640.50;;;10.90;83.65
13407;BME280;6774;48.208;10.766;2022-09-28T06:31:14;93653.22;;;10.93;83.86
13407;BME280;6774;48.208;10.766;2022-09-28T06:33:46;93648.56;;;10.83;83.93
13407;BME280;6774;48.208;10.766;2022-09-28T06:36:16;93652.66;;;10.91;83.62
13407;BME280;6774;48.208;10.766;2022-09-28T06:38:45;93660.47;;;10.86;83.37
13407;BME280;6774;48.208;10.766;2022-09-28T06:41:15;93667.34;;;10.87;83.78
13407;BME280;6774;48.208;10.766;2022-09-28T06:43:46;93664.63;;;10.82;84.25
13407;BME280;6774;48.208;10.766;2022-09-28T06:46:32;93666.03;;;10.73;84.48
13407;BME280;6774;48.208;10.766;2022-09-28T06:49:28;93669.72;;;10.72;84.94
13407;BME280;6774;48.208;10.766;2022-09-28T06:52:08;93677.06;;;10.70;85.63
13407;BME280;6774;48.208;10.766;2022-09-28T06:54:56;93666.03;;;10.73;86.00
13407;BME280;6774;48.208;10.766;2022-09-28T06:57:35;93671.91;;;10.63;86.53
13407;BME280;6774;48.208;10.766;2022-09-28T07:00:06;93679.09;;;10.68;86.31
13407;BME280;6774;48.208;10.766;2022-09-28T07:02:34;93691.84;;;10.59;86.66
13407;BME280;6774;48.208;10.766;2022-09-28T07:05:24;93689.91;;;10.66;86.88
13407;BME280;6774;48.208;10.766;2022-09-28T07:08:17;93685.75;;;10.82;86.76
13407;BME280;6774;48.208;10.766;2022-09-28T07:11:03;93680.25;;;10.72;87.25
13407;BME280;6774;48.208;10.766;2022-09-28T07:13:44;93687.56;;;10.81;86.80
13407;BME280;6774;48.208;10.766;2022-09-28T07:16:21;93681.03;;;10.84;86.91
13407;BME280;6774;48.208;10.766;2022-09-28T07:18:55;93675.97;;;10.82;86.75
13407;BME280;6774;48.208;10.766;2022-09-28T07:21:23;93680.47;;;10.82;87.29
13407;BME280;6774;48.208;10.766;2022-09-28T07:24:00;93678.19;;;10.74;87.48
13407;BME280;6774;48.208;10.766;2022-09-28T07:26:46;93682.06;;;10.83;87.42
13407;BME280;6774;48.208;10.766;2022-09-28T07:29:32;93682.78;;;10.67;88.78
13407;BME280;6774;48.208;10.766;2022-09-28T07:32:21;93695.75;;;10.57;89.49
13407;BME280;6774;48.208;10.766;2022-09-28T07:35:13;93695.38;;;10.88;88.59
13407;BME280;6774;48.208;10.766;2022-09-28T07:37:47;93691.94;;;10.76;89.13
13407;BME280;6774;48.208;10.766;2022-09-28T07:40:16;93700.78;;;10.58;89.58
13407;BME280;6774;48.208;10.766;2022-09-28T07:43:14;93699.56;;;10.61;90.07
13407;BME280;6774;48.208;10.766;2022-09-28T07:45:50;93704.84;;;10.61;90.64
13407;BME280;6774;48.208;10.766;2022-09-28T07:48:20;93724.09;;;10.49;90.92
13407;BME280;6774;48.208;10.766;2022-09-28T07:51:09;93726.25;;;10.17;92.13
13407;BME280;6774;48.208;10.766;2022-09-28T07:53:44;93716.66;;;10.46;92.54
13407;BME280;6774;48.208;10.766;2022-09-28T07:56:28;93719.97;;;10.30;92.43
13407;BME280;6774;48.208;10.766;2022-09-28T07:59:05;93730.25;;;10.20;93.56
13407;BME280;6774;48.208;10.766;2022-09-28T08:02:07;93750.69;;;10.36;92.70
13407;BME280;6774;48.208;10.766;2022-09-28T08:04:36;93763.53;;;10.44;92.99
13407;BME280;6774;48.208;10.766;2022-09-28T08:07:07;93775.69;;;10.45;92.22
13407;BME280;6774;48.208;10.766;2022-09-28T08:09:35;93795.63;;;10.41;92.63
13407;BME280;6774;48.208;10.766;2022-09-28T08:12:23;93809.81;;;9.57;90.74
13407;BME280;6774;48.208;10.766;2022-09-28T08:15:12;93806.41;;;9.68;90.16
13407;BME280;6774;48.208;10.766;2022-09-28T08:17:45;93818.75;;;9.56;90.18
13407;BME280;6774;48.208;10.766;2022-09-28T08:20:15;93816.38;;;9.18;90.71
13407;BME280;6774;48.208;10.766;2022-09-28T08:23:03;93808.56;;;8.93;91.80
13407;BME280;6774;48.208;10.766;2022-09-28T08:25:33;93817.78;;;9.02;92.25
13407;BME280;6774;48.208;10.766;2022-09-28T08:28:03;93817.41;;;9.35;91.08
13407;BME280;6774;48.208;10.766;2022-09-28T08:30:38;93822.25;;;9.50;89.21
13407;BME280;6774;48.208;10.766;2022-09-28T08:33:26;93837.38;;;9.24;90.93
13407;BME280;6774;48.208;10.766;2022-09-28T08:36:14;93829.59;;;9.11;90.98
13407;BME280;6774;48.208;10.766;2022-09-28T08:39:08;93841.00;;;9.23;90.34
13407;BME280;6774;48.208;10.766;2022-09-28T08:42:28;93842.63;;;9.43;89.88
13407;BME280;6774;48.208;10.766;2022-09-28T08:45:22;93840.44;;;9.21;90.99
13407;BME280;6774;48.208;10.766;2022-09-28T08:48:21;93833.41;;;9.52;90.41
13407;BME280;6774;48.208;10.766;2022-09-28T08:51:54;93842.59;;;9.61;90.20
13407;BME280;6774;48.208;10.766;2022-09-28T08:54:37;93838.28;;;9.78;89.36
13407;BME280;6774;48.208;10.766;2022-09-28T08:57:17;93840.25;;;9.71;89.68
13407;BME280;6774;48.208;10.766;2022-09-28T08:59:49;93832.97;;;9.96;88.88
13407;BME280;6774;48.208;10.766;2022-09-28T09:02:28;93837.66;;;9.94;88.04
13407;BME280;6774;48.208;10.766;2022-09-28T09:05:13;93836.44;;;10.27;88.07
13407;BME280;6774;48.208;10.766;2022-09-28T09:08:14;93851.22;;;10.28;87.65
13407;BME280;6774;48.208;10.766;2022-09-28T09:10:50;93844.13;;;9.98;88.09
13407;BME280;6774;48.208;10.766;2022-09-28T09:13:54;93847.34;;;10.12;88.21
13407;BME280;6774;48.208;10.766;2022-09-28T09:16:32;93843.31;;;10.28;87.74
13407;BME280;6774;48.208;10.766;2022-09-28T09:19:33;93850.53;;;10.33;87.77
13407;BME280;6774;48.208;10.766;2022-09-28T09:22:38;93855.97;;;10.61;87.81
13407;BME280;6774;48.208;10.766;2022-09-28T09:25:20;93857.44;;;10.57;86.71
13407;BME280;6774;48.208;10.766;2022-09-28T09:28:05;93870.81;;;10.32;87.39
13407;BME280;6774;48.208;10.766;2022-09-28T09:30:43;93869.97;;;10.62;87.40
13407;BME280;6774;48.208;10.766;2022-09-28T09:33:37;93882.56;;;10.60;87.39
13407;BME280;6774;48.208;10.766;2022-09-28T09:36:42;93883.56;;;10.47;87.11
13407;BME280;6774;48.208;10.766;2022-09-28T09:39:36;93875.72;;;10.82;86.76
13407;BME280;6774;48.208;10.766;2022-09-28T09:42:48;93884.84;;;10.44;87.43
13407;BME280;6774;48.208;10.766;2022-09-28T09:45:48;93892.66;;;10.63;87.32
13407;BME280;6774;48.208;10.766;2022-09-28T09:48:47;93891.81;;;10.50;87.46
13407;BME280;6774;48.208;10.766;2022-09-28T09:51:21;93889.25;;;10.74;87.63
13407;BME280;6774;48.208;10.766;2022-09-28T09:53:53;93896.91;;;10.75;87.61
13407;BME280;6774;48.208;10.766;2022-09-28T09:56:31;93898.66;;;10.93;86.33
13407;BME280;6774;48.208;10.766;2022-09-28T09:59:12;93892.66;;;10.63;86.06
13407;BME280;6774;48.208;10.766;2022-09-28T10:02:00;93894.28;;;10.75;86.36
13407;BME280;6774;48.208;10.766;2022-09-28T10:04:52;93887.63;;;10.73;85.48
13407;BME280;6774;48.208;10.766;2022-09-28T10:07:33;93889.72;;;10.94;85.93
13407;BME280;6774;48.208;10.766;2022-09-28T10:10:11;93895.34;;;10.98;86.79
13407;BME280;6774;48.208;10.766;2022-09-28T10:12:45;93901.63;;;10.85;86.13
13407;BME280;6774;48.208;10.766;2022-09-28T10:15:22;93907.84;;;11.02;86.11
13407;BME280;6774;48.208;10.766;2022-09-28T10:18:13;93904.75;;;11.29;86.09
13407;BME280;6774;48.208;10.766;2022-09-28T10:20:44;93901.41;;;11.45;84.98
13407;BME280;6774;48.208;10.766;2022-09-28T10:23:38;93899.22;;;11.54;85.28
13407;BME280;6774;48.208;10.766;2022-09-28T10:26:11;93898.25;;;11.72;84.39
13407;BME280;6774;48.208;10.766;2022-09-28T10:28:44;93910.91;;;11.58;84.37
13407;BME280;6774;48.208;10.766;2022-09-28T10:31:39;93911.75;;;11.35;85.20
13407;BME280;6774;48.208;10.766;2022-09-28T10:34:31;93907.78;;;11.61;85.10
13407;BME280;6774;48.208;10.766;2022-09-28T10:37:08;93906.19;;;11.72;84.59
13407;BME280;6774;48.208;10.766;2022-09-28T10:40:03;93899.53;;;11.81;84.53
13407;BME280;6774;48.208;10.766;2022-09-28T10:42:33;93898.13;;;11.90;84.25
13407;BME280;6774;48.208;10.766;2022-09-28T10:45:18;93891.88;;;11.96;84.02
13407;BME280;6774;48.208;10.766;2022-09-28T10:47:48;93895.38;;;12.13;84.38
13407;BME280;6774;48.208;10.766;2022-09-28T10:50:19;93906.78;;;12.02;83.42
13407;BME280;6774;48.208;10.766;2022-09-28T10:52:51;93905.06;;;12.08;83.21
13407;BME280;6774;48.208;10.766;2022-09-28T10:55:39;93915.22;;;11.87;83.29
13407;BME280;6774;48.208;10.766;2022-09-28T10:58:23;93913.78;;;12.08;82.99
13407;BME280;6774;48.208;10.766;2022-09-28T11:00:58;93913.38;;;12.00;82.40
13407;BME280;6774;48.208;10.766;2022-09-28T11:03:29;93917.66;;;11.89;83.74
13407;BME280;6774;48.208;10.766;2022-09-28T11:06:05;93921.78;;;11.73;84.37
13407;BME280;6774;48.208;10.766;2022-09-28T11:08:40;93927.91;;;11.62;84.95
13407;BME280;6774;48.208;10.766;2022-09-28T11:11:16;93922.06;;;11.48;85.11
13407;BME280;6774;48.208;10.766;2022-09-28T11:13:52;93922.41;;;10.93;83.32
13407;BME280;6774;48.208;10.766;2022-09-28T11:16:27;93919.78;;;10.93;83.09
13407;BME280;6774;48.208;10.766;2022-09-28T11:19:02;93924.66;;;10.66;83.59
13407;BME280;6774;48.208;10.766;2022-09-28T11:21:40;93913.53;;;10.64;85.79
13407;BME280;6774;48.208;10.766;2022-09-28T11:24:18;93911.72;;;10.65;84.72
13407;BME280;6774;48.208;10.766;2022-09-28T11:26:50;93921.59;;;10.28;84.63
13407;BME280;6774;48.208;10.766;2022-09-28T11:29:24;93934.38;;;10.42;85.07
13407;BME280;6774;48.208;10.766;2022-09-28T11:32:12;93930.59;;;10.20;85.50
13407;BME280;6774;48.208;10.766;2022-09-28T11:35:01;93924.78;;;10.00;85.68
13407;BME280;6774;48.208;10.766;2022-09-28T11:37:46;93942.91;;;10.26;84.75
13407;BME280;6774;48.208;10.766;2022-09-28T11:40:34;93942.91;;;10.26;86.44
13407;BME280;6774;48.208;10.766;2022-09-28T11:43:13;93938.50;;;10.20;86.04
13407;BME280;6774;48.208;10.766;2022-09-28T11:45:51;93931.75;;;10.54;85.23
13407;BME280;6774;48.208;10.766;2022-09-28T11:48:24;93937.19;;;10.29;85.83
13407;BME280;6774;48.208;10.766;2022-09-28T11:50:58;93947.19;;;10.20;86.02
13407;BME280;6774;48.208;10.766;2022-09-28T11:53:34;93952.69;;;10.37;85.97
13407;BME280;6774;48.208;10.766;2022-09-28T11:56:08;93948.22;;;10.38;86.67
13407;BME280;6774;48.208;10.766;2022-09-28T11:58:43;93932.75;;;10.41;86.84
13407;BME280;6774;48.208;10.766;2022-09-28T12:01:21;93946.38;;;10.38;86.51
13407;BME280;6774;48.208;10.766;2022-09-28T12:04:16;93942.47;;;10.41;86.27
13407;BME280;6774;48.208;10.766;2022-09-28T12:06:52;93935.84;;;10.50;85.84
13407;BME280;6774;48.208;10.766;2022-09-28T12:09:30;93950.50;;;10.34;86.05
13407;BME280;6774;48.208;10.766;2022-09-28T12:12:17;93954.06;;;10.21;86.28
13407;BME280;6774;48.208;10.766;2022-09-28T12:14:49;93969.09;;;10.21;86.90
13407;BME280;6774;48.208;10.766;2022-09-28T12:17:23;93962.66;;;10.17;87.17
13407;BME280;6774;48.208;10.766;2022-09-28T12:19:58;93958.19;;;10.36;86.69
13407;BME280;6774;48.208;10.766;2022-09-28T12:22:32;93961.63;;;10.36;87.49
13407;BME280;6774;48.208;10.766;2022-09-28T12:25:02;93959.59;;;10.50;86.99
13407;BME280;6774;48.208;10.766;2022-09-28T12:27:38;93956.88;;;10.57;85.47
13407;BME280;6774;48.208;10.766;2022-09-28T12:30:12;93956.06;;;10.56;85.20
13407;BME280;6774;48.208;10.766;2022-09-28T12:32:45;93953.56;;;10.61;85.47
13407;BME280;6774;48.208;10.766;2022-09-28T12:35:19;93961.50;;;10.73;85.51
13407;BME280;6774;48.208;10.766;2022-09-28T12:38:03;93972.47;;;10.28;86.78
13407;BME280;6774;48.208;10.766;2022-09-28T12:40:37;93972.91;;;10.43;86.96
13407;BME280;6774;48.208;10.766;2022-09-28T12:43:28;93972.78;;;10.50;87.27
13407;BME280;6774;48.208;10.766;2022-09-28T12:46:16;93971.97;;;10.49;87.10
13407;BME280;6774;48.208;10.766;2022-09-28T12:49:23;93964.59;;;10.70;87.03
13407;BME280;6774;48.208;10.766;2022-09-28T12:52:26;93966.69;;;10.49;85.96
13407;BME280;6774;48.208;10.766;2022-09-28T12:55:20;93957.91;;;10.56;85.75
13407;BME280;6774;48.208;10.766;2022-09-28T12:57:56;93961.28;;;10.74;85.65
13407;BME280;6774;48.208;10.766;2022-09-28T13:00:31;93951.84;;;10.67;84.94
13407;BME280;6774;48.208;10.766;2022-09-28T13:03:16;93951.91;;;10.90;85.67
13407;BME280;6774;48.208;10.766;2022-09-28T13:06:20;93947.88;;;10.88;85.60
13407;BME280;6774;48.208;10.766;2022-09-28T13:09:08;93947.34;;;10.97;83.85
13407;BME280;6774;48.208;10.766;2022-09-28T13:11:47;93935.59;;;11.05;84.03
13407;BME280;6774;48.208;10.766;2022-09-28T13:14:46;93934.94;;;11.09;83.79
13407;BME280;6774;48.208;10.766;2022-09-28T13:17:35;93942.53;;;11.18;83.85
13407;BME280;6774;48.208;10.766;2022-09-28T13:20:16;93952.03;;;11.07;84.94
13407;BME280;6774;48.208;10.766;2022-09-28T13:22:52;93960.19;;;10.52;85.27
13407;BME280;6774;48.208;10.766;2022-09-28T13:25:24;93967.63;;;10.43;86.36
13407;BME280;6774;48.208;10.766;2022-09-28T13:27:58;93973.81;;;10.49;85.56
13407;BME280;6774;48.208;10.766;2022-09-28T13:30:28;93969.06;;;10.69;85.89
13407;BME280;6774;48.208;10.766;2022-09-28T13:32:59;93971.03;;;10.74;85.85
13407;BME280;6774;48.208;10.766;2022-09-28T13:35:28;93968.13;;;10.64;85.50
13407;BME280;6774;48.208;10.766;2022-09-28T13:41:13;93958.97;;;10.78;86.38
13407;BME280;6774;48.208;10.766;2022-09-28T13:43:58;93960.00;;;10.65;86.35
13407;BME280;6774;48.208;10.766;2022-09-28T13:46:36;93968.13;;;10.64;86.50
13407;BME280;6774;48.208;10.766;2022-09-28T13:49:13;93957.50;;;10.70;85.82
13407;BME280;6774;48.208;10.766;2022-09-28T13:51:51;93962.78;;;10.94;85.61
13407;BME280;6774;48.208;10.766;2022-09-28T13:54:32;93953.03;;;10.94;84.80
13407;BME280;6774;48.208;10.766;2022-09-28T13:57:16;93954.88;;;11.05;85.55
13407;BME280;6774;48.208;10.766;2022-09-28T13:59:56;93951.34;;;11.11;85.45